sensor_id;sensor_type;location;lat;lon;timestamp;temperature;humidity
15879;DHT22;61999;51.514;14.614;2022-10-20T00:01:19;1.30;62.60
15879;DHT22;61999;51.514;14.614;2022-10-20T00:03:49;1.30;62.60
15879;DHT22;61999;51.514;14.614;2022-10-20T00:06:19;1.30;62.60
15879;DHT22;61999;51.514;14.614;2022-10-20T00:08:49;1.30;62.70
15879;DHT22;61999;51.514;14.614;2022-10-20T00:11:19;1.30;62.70
15879;DHT22;61999;51.514;14.614;2022-10-20T00:13:50;1.30;62.80
15879;DHT22;61999;51.514;14.614;2022-10-20T00:16:22;1.20;62.70
15879;DHT22;61999;51.514;14.614;2022-10-20T00:18:51;1.30;62.80
15879;DHT22;61999;51.514;14.614;2022-10-20T00:21:23;1.20;62.70
15879;DHT22;61999;51.514;14.614;2022-10-20T00:23:53;1.20;62.70
15879;DHT22;61999;51.514;14.614;2022-10-20T00:26:22;1.20;62.80
15879;DHT22;61999;51.514;14.614;2022-10-20T00:28:52;1.20;62.80
15879;DHT22;61999;51.514;14.614;2022-10-20T00:31:22;1.20;62.70
15879;DHT22;61999;51.514;14.614;2022-10-20T00:33:51;1.20;62.70
15879;DHT22;61999;51.514;14.614;2022-10-20T00:36:22;1.20;62.80
15879;DHT22;61999;51.514;14.614;2022-10-20T00:38:54;1.10;62.70
15879;DHT22;61999;51.514;14.614;2022-10-20T00:41:24;1.10;62.80
15879;DHT22;61999;51.514;14.614;2022-10-20T00:43:54;1.10;62.80
15879;DHT22;61999;51.514;14.614;2022-10-20T00:46:29;1.10;62.90
15879;DHT22;61999;51.514;14.614;2022-10-20T00:49:02;1.10;63.00
15879;DHT22;61999;51.514;14.614;2022-10-20T00:51:34;1.10;63.00
15879;DHT22;61999;51.514;14.614;2022-10-20T00:54:07;1.10;63.10
15879;DHT22;61999;51.514;14.614;2022-10-20T00:56:41;1.10;63.20
15879;DHT22;61999;51.514;14.614;2022-10-20T00:59:16;1.10;63.20
15879;DHT22;61999;51.514;14.614;2022-10-20T01:01:48;1.10;63.20
15879;DHT22;61999;51.514;14.614;2022-10-20T01:04:16;1.10;63.40
15879;DHT22;61999;51.514;14.614;2022-10-20T01:06:45;1.10;63.40
15879;DHT22;61999;51.514;14.614;2022-10-20T01:09:13;1.10;63.40
15879;DHT22;61999;51.514;14.614;2022-10-20T01:11:46;1.10;63.40
15879;DHT22;61999;51.514;14.614;2022-10-20T01:14:30;1.10;63.50
15879;DHT22;61999;51.514;14.614;2022-10-20T01:17:14;1.10;63.50
15879;DHT22;61999;51.514;14.614;2022-10-20T01:20:13;1.10;63.50
15879;DHT22;61999;51.514;14.614;2022-10-20T01:26:39;1.10;63.90
15879;DHT22;61999;51.514;14.614;2022-10-20T01:29:32;1.10;63.80
15879;DHT22;61999;51.514;14.614;2022-10-20T01:32:08;1.10;63.70
15879;DHT22;61999;51.514;14.614;2022-10-20T01:34:48;1.10;64.00
15879;DHT22;61999;51.514;14.614;2022-10-20T01:37:28;1.10;64.20
15879;DHT22;61999;51.514;14.614;2022-10-20T01:40:18;1.10;64.10
15879;DHT22;61999;51.514;14.614;2022-10-20T01:42:53;1.10;64.10
15879;DHT22;61999;51.514;14.614;2022-10-20T01:45:29;1.10;64.20
15879;DHT22;61999;51.514;14.614;2022-10-20T01:48:02;1.10;64.20
15879;DHT22;61999;51.514;14.614;2022-10-20T01:50:34;1.20;64.30
15879;DHT22;61999;51.514;14.614;2022-10-20T01:53:04;1.20;64.30
15879;DHT22;61999;51.514;14.614;2022-10-20T01:55:32;1.20;64.30
15879;DHT22;61999;51.514;14.614;2022-10-20T01:58:43;1.10;64.80
15879;DHT22;61999;51.514;14.614;2022-10-20T02:01:46;1.10;64.70
15879;DHT22;61999;51.514;14.614;2022-10-20T02:04:41;1.00;65.00
15879;DHT22;61999;51.514;14.614;2022-10-20T02:07:25;1.00;65.40
15879;DHT22;61999;51.514;14.614;2022-10-20T02:10:02;0.90;65.70
15879;DHT22;61999;51.514;14.614;2022-10-20T02:12:39;0.70;67.10
15879;DHT22;61999;51.514;14.614;2022-10-20T02:15:11;0.70;67.10
15879;DHT22;61999;51.514;14.614;2022-10-20T02:17:46;0.70;66.80
15879;DHT22;61999;51.514;14.614;2022-10-20T02:20:15;0.70;67.30
15879;DHT22;61999;51.514;14.614;2022-10-20T02:22:44;0.60;67.40
15879;DHT22;61999;51.514;14.614;2022-10-20T02:25:12;0.70;67.30
15879;DHT22;61999;51.514;14.614;2022-10-20T02:27:44;0.70;67.20
15879;DHT22;61999;51.514;14.614;2022-10-20T02:30:15;0.70;67.50
15879;DHT22;61999;51.514;14.614;2022-10-20T02:32:48;0.60;68.10
15879;DHT22;61999;51.514;14.614;2022-10-20T02:35:21;0.60;68.70
15879;DHT22;61999;51.514;14.614;2022-10-20T02:37:53;0.60;68.70
15879;DHT22;61999;51.514;14.614;2022-10-20T02:40:21;0.50;68.60
15879;DHT22;61999;51.514;14.614;2022-10-20T02:42:49;0.50;68.70
15879;DHT22;61999;51.514;14.614;2022-10-20T02:45:17;0.50;69.10
15879;DHT22;61999;51.514;14.614;2022-10-20T02:47:46;0.50;69.00
15879;DHT22;61999;51.514;14.614;2022-10-20T02:50:14;0.40;69.40
15879;DHT22;61999;51.514;14.614;2022-10-20T02:52:43;0.40;69.70
15879;DHT22;61999;51.514;14.614;2022-10-20T02:55:10;0.30;69.90
15879;DHT22;61999;51.514;14.614;2022-10-20T02:57:38;0.30;70.00
15879;DHT22;61999;51.514;14.614;2022-10-20T03:00:07;0.20;70.10
15879;DHT22;61999;51.514;14.614;2022-10-20T03:02:36;0.20;70.20
15879;DHT22;61999;51.514;14.614;2022-10-20T03:05:06;0.30;70.00
15879;DHT22;61999;51.514;14.614;2022-10-20T03:07:34;0.20;70.40
15879;DHT22;61999;51.514;14.614;2022-10-20T03:10:03;0.30;69.80
15879;DHT22;61999;51.514;14.614;2022-10-20T03:12:31;0.30;70.00
15879;DHT22;61999;51.514;14.614;2022-10-20T03:14:59;0.30;69.80
15879;DHT22;61999;51.514;14.614;2022-10-20T03:17:27;0.30;70.00
15879;DHT22;61999;51.514;14.614;2022-10-20T03:19:55;0.20;69.90
15879;DHT22;61999;51.514;14.614;2022-10-20T03:22:24;0.20;70.00
15879;DHT22;61999;51.514;14.614;2022-10-20T03:24:52;0.20;70.00
15879;DHT22;61999;51.514;14.614;2022-10-20T03:27:20;0.20;70.30
15879;DHT22;61999;51.514;14.614;2022-10-20T03:29:48;0.10;70.50
15879;DHT22;61999;51.514;14.614;2022-10-20T03:32:16;0.10;70.50
15879;DHT22;61999;51.514;14.614;2022-10-20T03:34:44;0.00;71.10
15879;DHT22;61999;51.514;14.614;2022-10-20T03:37:12;-0.10;71.20
15879;DHT22;61999;51.514;14.614;2022-10-20T03:39:41;-0.10;71.30
15879;DHT22;61999;51.514;14.614;2022-10-20T03:42:09;-0.10;71.60
15879;DHT22;61999;51.514;14.614;2022-10-20T03:44:37;-0.10;71.60
15879;DHT22;61999;51.514;14.614;2022-10-20T03:47:05;-0.10;71.70
15879;DHT22;61999;51.514;14.614;2022-10-20T03:49:33;-0.30;72.20
15879;DHT22;61999;51.514;14.614;2022-10-20T03:52:01;-0.50;72.70
15879;DHT22;61999;51.514;14.614;2022-10-20T03:54:30;-0.70;73.30
15879;DHT22;61999;51.514;14.614;2022-10-20T03:56:59;-0.60;73.40
15879;DHT22;61999;51.514;14.614;2022-10-20T03:59:28;-0.60;73.30
15879;DHT22;61999;51.514;14.614;2022-10-20T04:01:56;-0.50;73.20
15879;DHT22;61999;51.514;14.614;2022-10-20T04:04:24;-0.50;72.90
15879;DHT22;61999;51.514;14.614;2022-10-20T04:06:52;-0.40;73.00
15879;DHT22;61999;51.514;14.614;2022-10-20T04:09:20;-0.50;72.80
15879;DHT22;61999;51.514;14.614;2022-10-20T04:11:48;-0.40;72.80
15879;DHT22;61999;51.514;14.614;2022-10-20T04:14:17;-0.30;72.60
15879;DHT22;61999;51.514;14.614;2022-10-20T04:16:45;-0.30;72.40
15879;DHT22;61999;51.514;14.614;2022-10-20T04:19:13;-0.50;72.60
15879;DHT22;61999;51.514;14.614;2022-10-20T04:21:40;-0.40;72.40
15879;DHT22;61999;51.514;14.614;2022-10-20T04:24:08;-0.40;72.50
15879;DHT22;61999;51.514;14.614;2022-10-20T04:26:36;-0.30;72.30
15879;DHT22;61999;51.514;14.614;2022-10-20T04:29:04;-0.50;72.00
15879;DHT22;61999;51.514;14.614;2022-10-20T04:31:33;-0.40;72.30
15879;DHT22;61999;51.514;14.614;2022-10-20T04:34:01;-0.50;72.20
15879;DHT22;61999;51.514;14.614;2022-10-20T04:36:29;-0.40;72.10
15879;DHT22;61999;51.514;14.614;2022-10-20T04:38:57;-0.30;71.90
15879;DHT22;61999;51.514;14.614;2022-10-20T04:41:25;-0.30;71.80
15879;DHT22;61999;51.514;14.614;2022-10-20T04:43:53;-0.70;72.10
15879;DHT22;61999;51.514;14.614;2022-10-20T04:46:21;-0.60;72.50
15879;DHT22;61999;51.514;14.614;2022-10-20T04:48:50;-0.70;72.50
15879;DHT22;61999;51.514;14.614;2022-10-20T04:51:19;-0.70;72.60
15879;DHT22;61999;51.514;14.614;2022-10-20T04:53:47;-0.80;72.80
15879;DHT22;61999;51.514;14.614;2022-10-20T04:56:17;-1.00;73.20
15879;DHT22;61999;51.514;14.614;2022-10-20T04:58:47;-0.90;73.50
15879;DHT22;61999;51.514;14.614;2022-10-20T05:01:16;-0.90;73.60
15879;DHT22;61999;51.514;14.614;2022-10-20T05:03:44;-0.90;73.50
15879;DHT22;61999;51.514;14.614;2022-10-20T05:06:15;-0.90;73.30
15879;DHT22;61999;51.514;14.614;2022-10-20T05:08:46;-0.90;73.50
15879;DHT22;61999;51.514;14.614;2022-10-20T05:11:18;-0.80;73.40
15879;DHT22;61999;51.514;14.614;2022-10-20T05:13:47;-0.80;73.20
15879;DHT22;61999;51.514;14.614;2022-10-20T05:16:15;-0.90;73.40
15879;DHT22;61999;51.514;14.614;2022-10-20T05:18:44;-0.90;73.30
15879;DHT22;61999;51.514;14.614;2022-10-20T05:21:17;-1.00;73.30
15879;DHT22;61999;51.514;14.614;2022-10-20T05:23:47;-1.00;73.60
15879;DHT22;61999;51.514;14.614;2022-10-20T05:26:17;-1.00;73.70
15879;DHT22;61999;51.514;14.614;2022-10-20T05:28:47;-0.90;73.70
15879;DHT22;61999;51.514;14.614;2022-10-20T05:31:18;-0.80;73.50
15879;DHT22;61999;51.514;14.614;2022-10-20T05:33:50;-0.80;73.20
15879;DHT22;61999;51.514;14.614;2022-10-20T05:36:23;-0.70;73.10
15879;DHT22;61999;51.514;14.614;2022-10-20T05:38:53;-0.70;72.70
15879;DHT22;61999;51.514;14.614;2022-10-20T05:41:23;-0.60;72.60
15879;DHT22;61999;51.514;14.614;2022-10-20T05:43:55;-0.70;72.60
15879;DHT22;61999;51.514;14.614;2022-10-20T05:46:25;-0.70;72.40
15879;DHT22;61999;51.514;14.614;2022-10-20T05:48:56;-0.80;72.40
15879;DHT22;61999;51.514;14.614;2022-10-20T05:51:29;-0.80;72.50
15879;DHT22;61999;51.514;14.614;2022-10-20T05:53:58;-0.80;73.00
15879;DHT22;61999;51.514;14.614;2022-10-20T05:56:27;-0.80;72.90
15879;DHT22;61999;51.514;14.614;2022-10-20T05:58:57;-0.80;72.90
15879;DHT22;61999;51.514;14.614;2022-10-20T06:01:27;-0.90;73.00
15879;DHT22;61999;51.514;14.614;2022-10-20T06:04:06;-1.00;73.20
15879;DHT22;61999;51.514;14.614;2022-10-20T06:06:35;-0.90;73.50
15879;DHT22;61999;51.514;14.614;2022-10-20T06:09:05;-0.90;73.50
15879;DHT22;61999;51.514;14.614;2022-10-20T06:11:36;-0.90;74.40
15879;DHT22;61999;51.514;14.614;2022-10-20T06:14:05;-0.80;73.70
15879;DHT22;61999;51.514;14.614;2022-10-20T06:16:34;-0.70;73.70
15879;DHT22;61999;51.514;14.614;2022-10-20T06:19:02;-0.60;73.50
15879;DHT22;61999;51.514;14.614;2022-10-20T06:21:33;-0.80;73.80
15879;DHT22;61999;51.514;14.614;2022-10-20T06:24:05;-0.80;73.90
15879;DHT22;61999;51.514;14.614;2022-10-20T06:26:34;-0.80;74.00
15879;DHT22;61999;51.514;14.614;2022-10-20T06:29:04;-0.80;74.10
15879;DHT22;61999;51.514;14.614;2022-10-20T06:31:35;-0.80;74.30
15879;DHT22;61999;51.514;14.614;2022-10-20T06:34:06;-0.80;74.30
15879;DHT22;61999;51.514;14.614;2022-10-20T06:36:37;-0.70;74.40
15879;DHT22;61999;51.514;14.614;2022-10-20T06:39:11;-0.70;75.20
15879;DHT22;61999;51.514;14.614;2022-10-20T06:41:40;-0.70;74.40
15879;DHT22;61999;51.514;14.614;2022-10-20T06:44:08;-0.60;74.60
15879;DHT22;61999;51.514;14.614;2022-10-20T06:46:36;-0.70;74.60
15879;DHT22;61999;51.514;14.614;2022-10-20T06:49:05;-0.70;74.90
15879;DHT22;61999;51.514;14.614;2022-10-20T06:51:34;-0.60;75.20
15879;DHT22;61999;51.514;14.614;2022-10-20T06:54:04;-0.50;75.00
15879;DHT22;61999;51.514;14.614;2022-10-20T06:56:34;-0.60;75.10
15879;DHT22;61999;51.514;14.614;2022-10-20T06:59:03;-0.50;75.40
15879;DHT22;61999;51.514;14.614;2022-10-20T07:01:33;-0.30;75.40
15879;DHT22;61999;51.514;14.614;2022-10-20T07:04:04;-0.30;75.30
15879;DHT22;61999;51.514;14.614;2022-10-20T07:06:35;-0.20;75.30
15879;DHT22;61999;51.514;14.614;2022-10-20T07:09:06;-0.10;75.30
15879;DHT22;61999;51.514;14.614;2022-10-20T07:11:38;0.00;75.00
15879;DHT22;61999;51.514;14.614;2022-10-20T07:14:06;0.10;74.60
15879;DHT22;61999;51.514;14.614;2022-10-20T07:16:34;0.10;74.30
15879;DHT22;61999;51.514;14.614;2022-10-20T07:19:03;0.30;74.50
15879;DHT22;61999;51.514;14.614;2022-10-20T07:21:32;0.40;73.70
15879;DHT22;61999;51.514;14.614;2022-10-20T07:24:05;0.40;73.50
15879;DHT22;61999;51.514;14.614;2022-10-20T07:26:36;0.40;73.00
15879;DHT22;61999;51.514;14.614;2022-10-20T07:29:06;0.30;73.20
15879;DHT22;61999;51.514;14.614;2022-10-20T07:31:38;0.30;73.90
15879;DHT22;61999;51.514;14.614;2022-10-20T07:34:08;0.30;73.90
15879;DHT22;61999;51.514;14.614;2022-10-20T07:36:54;0.50;74.20
15879;DHT22;61999;51.514;14.614;2022-10-20T07:39:23;0.70;74.10
15879;DHT22;61999;51.514;14.614;2022-10-20T07:41:53;0.90;73.30
15879;DHT22;61999;51.514;14.614;2022-10-20T07:44:21;1.10;72.50
15879;DHT22;61999;51.514;14.614;2022-10-20T07:52:58;1.30;70.70
15879;DHT22;61999;51.514;14.614;2022-10-20T07:55:26;1.10;72.50
15879;DHT22;61999;51.514;14.614;2022-10-20T07:58:18;1.20;72.50
15879;DHT22;61999;51.514;14.614;2022-10-20T08:00:46;1.30;72.40
15879;DHT22;61999;51.514;14.614;2022-10-20T08:03:14;1.70;72.10
15879;DHT22;61999;51.514;14.614;2022-10-20T08:05:42;1.90;70.80
15879;DHT22;61999;51.514;14.614;2022-10-20T08:08:11;2.10;69.50
15879;DHT22;61999;51.514;14.614;2022-10-20T08:10:39;2.30;70.40
15879;DHT22;61999;51.514;14.614;2022-10-20T08:13:07;2.60;69.10
15879;DHT22;61999;51.514;14.614;2022-10-20T08:15:35;2.80;68.30
15879;DHT22;61999;51.514;14.614;2022-10-20T08:18:10;2.90;67.60
15879;DHT22;61999;51.514;14.614;2022-10-20T08:20:41;3.00;68.00
15879;DHT22;61999;51.514;14.614;2022-10-20T08:23:12;3.20;67.00
15879;DHT22;61999;51.514;14.614;2022-10-20T08:25:41;3.50;67.30
15879;DHT22;61999;51.514;14.614;2022-10-20T08:28:09;3.60;66.30
15879;DHT22;61999;51.514;14.614;2022-10-20T08:30:37;3.80;66.00
15879;DHT22;61999;51.514;14.614;2022-10-20T08:33:05;4.10;65.10
15879;DHT22;61999;51.514;14.614;2022-10-20T08:35:33;4.40;64.90
15879;DHT22;61999;51.514;14.614;2022-10-20T08:38:04;4.70;66.00
15879;DHT22;61999;51.514;14.614;2022-10-20T08:40:35;5.10;64.50
15879;DHT22;61999;51.514;14.614;2022-10-20T08:43:12;5.40;62.60
15879;DHT22;61999;51.514;14.614;2022-10-20T08:45:44;5.60;63.40
15879;DHT22;61999;51.514;14.614;2022-10-20T08:48:16;6.00;62.90
15879;DHT22;61999;51.514;14.614;2022-10-20T08:50:50;6.50;62.80
15879;DHT22;61999;51.514;14.614;2022-10-20T08:53:23;6.70;59.60
15879;DHT22;61999;51.514;14.614;2022-10-20T08:55:55;6.80;59.50
15879;DHT22;61999;51.514;14.614;2022-10-20T08:58:23;7.00;59.10
15879;DHT22;61999;51.514;14.614;2022-10-20T09:00:55;7.40;59.70
15879;DHT22;61999;51.514;14.614;2022-10-20T09:03:27;7.60;57.80
15879;DHT22;61999;51.514;14.614;2022-10-20T09:06:01;7.90;59.70
15879;DHT22;61999;51.514;14.614;2022-10-20T09:08:37;8.30;58.30
15879;DHT22;61999;51.514;14.614;2022-10-20T09:11:15;8.50;57.30
15879;DHT22;61999;51.514;14.614;2022-10-20T09:13:57;8.70;56.90
15879;DHT22;61999;51.514;14.614;2022-10-20T09:16:27;8.90;54.60
15879;DHT22;61999;51.514;14.614;2022-10-20T09:18:59;9.20;55.40
15879;DHT22;61999;51.514;14.614;2022-10-20T09:22:02;9.40;54.90
15879;DHT22;61999;51.514;14.614;2022-10-20T09:24:54;9.60;54.80
15879;DHT22;61999;51.514;14.614;2022-10-20T09:27:31;10.00;53.20
15879;DHT22;61999;51.514;14.614;2022-10-20T09:30:13;10.00;52.20
15879;DHT22;61999;51.514;14.614;2022-10-20T09:32:43;10.30;54.50
15879;DHT22;61999;51.514;14.614;2022-10-20T09:35:19;10.60;53.30
15879;DHT22;61999;51.514;14.614;2022-10-20T09:37:53;11.00;51.70
15879;DHT22;61999;51.514;14.614;2022-10-20T09:40:29;11.30;51.50
15879;DHT22;61999;51.514;14.614;2022-10-20T09:43:00;11.60;49.60
15879;DHT22;61999;51.514;14.614;2022-10-20T09:45:37;11.40;51.70
15879;DHT22;61999;51.514;14.614;2022-10-20T09:48:20;12.00;52.00
15879;DHT22;61999;51.514;14.614;2022-10-20T09:50:52;12.40;51.90
15879;DHT22;61999;51.514;14.614;2022-10-20T09:53:24;12.60;47.80
15879;DHT22;61999;51.514;14.614;2022-10-20T09:55:55;13.00;49.40
15879;DHT22;61999;51.514;14.614;2022-10-20T09:58:28;13.20;47.70
15879;DHT22;61999;51.514;14.614;2022-10-20T10:01:01;13.30;46.30
15879;DHT22;61999;51.514;14.614;2022-10-20T10:03:37;13.40;45.70
15879;DHT22;61999;51.514;14.614;2022-10-20T10:06:20;13.60;45.20
15879;DHT22;61999;51.514;14.614;2022-10-20T10:08:55;13.00;42.40
15879;DHT22;61999;51.514;14.614;2022-10-20T10:11:27;13.00;43.80
15879;DHT22;61999;51.514;14.614;2022-10-20T10:14:20;12.90;43.70
15879;DHT22;61999;51.514;14.614;2022-10-20T10:16:48;13.30;42.30
15879;DHT22;61999;51.514;14.614;2022-10-20T10:19:22;13.00;43.40
15879;DHT22;61999;51.514;14.614;2022-10-20T10:21:54;13.00;43.20
15879;DHT22;61999;51.514;14.614;2022-10-20T10:24:35;13.10;44.20
15879;DHT22;61999;51.514;14.614;2022-10-20T10:27:21;13.30;43.30
15879;DHT22;61999;51.514;14.614;2022-10-20T10:29:53;13.40;42.80
15879;DHT22;61999;51.514;14.614;2022-10-20T10:32:25;13.40;43.20
15879;DHT22;61999;51.514;14.614;2022-10-20T10:35:03;13.70;42.70
15879;DHT22;61999;51.514;14.614;2022-10-20T10:37:40;14.10;43.50
15879;DHT22;61999;51.514;14.614;2022-10-20T10:40:16;14.50;41.20
15879;DHT22;61999;51.514;14.614;2022-10-20T10:42:56;14.80;40.90
15879;DHT22;61999;51.514;14.614;2022-10-20T10:45:43;14.70;40.50
15879;DHT22;61999;51.514;14.614;2022-10-20T10:48:33;14.60;42.30
15879;DHT22;61999;51.514;14.614;2022-10-20T10:51:26;14.80;40.30
15879;DHT22;61999;51.514;14.614;2022-10-20T10:54:14;14.70;40.40
15879;DHT22;61999;51.514;14.614;2022-10-20T10:56:55;14.90;39.60
15879;DHT22;61999;51.514;14.614;2022-10-20T10:59:29;14.70;39.80
15879;DHT22;61999;51.514;14.614;2022-10-20T11:08:34;15.90;40.30
15879;DHT22;61999;51.514;14.614;2022-10-20T11:11:19;16.30;37.50
15879;DHT22;61999;51.514;14.614;2022-10-20T11:14:13;16.30;36.50
15879;DHT22;61999;51.514;14.614;2022-10-20T11:17:03;16.40;37.40
15879;DHT22;61999;51.514;14.614;2022-10-20T11:20:09;16.30;37.00
15879;DHT22;61999;51.514;14.614;2022-10-20T11:23:11;16.70;37.80
15879;DHT22;61999;51.514;14.614;2022-10-20T11:25:57;16.80;36.90
15879;DHT22;61999;51.514;14.614;2022-10-20T11:28:38;17.40;37.80
15879;DHT22;61999;51.514;14.614;2022-10-20T11:31:18;17.80;37.90
15879;DHT22;61999;51.514;14.614;2022-10-20T11:34:08;18.20;37.20
15879;DHT22;61999;51.514;14.614;2022-10-20T11:36:47;18.50;33.40
15879;DHT22;61999;51.514;14.614;2022-10-20T11:39:25;18.50;34.20
15879;DHT22;61999;51.514;14.614;2022-10-20T11:42:02;18.60;33.00
15879;DHT22;61999;51.514;14.614;2022-10-20T11:44:42;18.60;32.50
15879;DHT22;61999;51.514;14.614;2022-10-20T11:47:15;18.20;31.80
15879;DHT22;61999;51.514;14.614;2022-10-20T11:49:51;17.40;33.50
15879;DHT22;61999;51.514;14.614;2022-10-20T11:52:52;17.90;33.40
15879;DHT22;61999;51.514;14.614;2022-10-20T11:55:51;17.80;32.50
15879;DHT22;61999;51.514;14.614;2022-10-20T12:10:57;19.10;30.80
15879;DHT22;61999;51.514;14.614;2022-10-20T12:18:21;19.30;31.90
15879;DHT22;61999;51.514;14.614;2022-10-20T12:33:40;19.00;31.10
15879;DHT22;61999;51.514;14.614;2022-10-20T12:40:40;18.90;32.10
15879;DHT22;61999;51.514;14.614;2022-10-20T12:44:12;19.40;30.70
15879;DHT22;61999;51.514;14.614;2022-10-20T12:47:08;19.30;30.40
15879;DHT22;61999;51.514;14.614;2022-10-20T12:50:21;19.60;31.00
15879;DHT22;61999;51.514;14.614;2022-10-20T12:53:32;19.50;30.00
15879;DHT22;61999;51.514;14.614;2022-10-20T12:56:04;19.40;29.80
15879;DHT22;61999;51.514;14.614;2022-10-20T12:58:35;19.50;31.00
15879;DHT22;61999;51.514;14.614;2022-10-20T13:01:10;19.70;30.80
15879;DHT22;61999;51.514;14.614;2022-10-20T13:03:41;19.20;30.30
15879;DHT22;61999;51.514;14.614;2022-10-20T13:06:41;19.20;30.50
15879;DHT22;61999;51.514;14.614;2022-10-20T13:09:22;19.20;30.70
15879;DHT22;61999;51.514;14.614;2022-10-20T13:12:00;19.50;30.60
15879;DHT22;61999;51.514;14.614;2022-10-20T13:14:34;19.60;30.80
15879;DHT22;61999;51.514;14.614;2022-10-20T13:17:28;19.50;30.10
15879;DHT22;61999;51.514;14.614;2022-10-20T13:20:17;19.60;31.30
15879;DHT22;61999;51.514;14.614;2022-10-20T13:22:53;20.00;31.00
15879;DHT22;61999;51.514;14.614;2022-10-20T13:25:35;20.20;29.90
15879;DHT22;61999;51.514;14.614;2022-10-20T13:28:14;20.30;30.00
15879;DHT22;61999;51.514;14.614;2022-10-20T13:31:10;20.20;29.90
15879;DHT22;61999;51.514;14.614;2022-10-20T13:33:51;20.20;30.00
15879;DHT22;61999;51.514;14.614;2022-10-20T13:36:42;19.80;29.60
15879;DHT22;61999;51.514;14.614;2022-10-20T13:39:24;19.80;30.70
15879;DHT22;61999;51.514;14.614;2022-10-20T13:42:08;20.30;32.40
15879;DHT22;61999;51.514;14.614;2022-10-20T13:44:55;20.20;30.30
15879;DHT22;61999;51.514;14.614;2022-10-20T13:47:50;19.90;30.70
15879;DHT22;61999;51.514;14.614;2022-10-20T13:50:32;19.90;30.70
15879;DHT22;61999;51.514;14.614;2022-10-20T13:53:09;19.30;31.10
15879;DHT22;61999;51.514;14.614;2022-10-20T13:55:57;19.60;31.20
15879;DHT22;61999;51.514;14.614;2022-10-20T13:58:28;19.80;30.80
15879;DHT22;61999;51.514;14.614;2022-10-20T14:01:00;19.80;30.90
15879;DHT22;61999;51.514;14.614;2022-10-20T14:03:39;19.70;30.80
15879;DHT22;61999;51.514;14.614;2022-10-20T14:06:30;19.50;30.50
15879;DHT22;61999;51.514;14.614;2022-10-20T14:09:14;19.30;30.80
15879;DHT22;61999;51.514;14.614;2022-10-20T14:11:46;19.40;30.90
15879;DHT22;61999;51.514;14.614;2022-10-20T14:14:21;19.10;31.40
15879;DHT22;61999;51.514;14.614;2022-10-20T14:16:53;19.00;31.00
15879;DHT22;61999;51.514;14.614;2022-10-20T14:19:25;18.50;30.90
15879;DHT22;61999;51.514;14.614;2022-10-20T14:21:56;18.20;31.40
15879;DHT22;61999;51.514;14.614;2022-10-20T14:24:29;18.00;31.90
15879;DHT22;61999;51.514;14.614;2022-10-20T14:27:02;17.70;32.00
15879;DHT22;61999;51.514;14.614;2022-10-20T14:29:34;17.50;32.80
15879;DHT22;61999;51.514;14.614;2022-10-20T14:32:06;17.20;32.80
15879;DHT22;61999;51.514;14.614;2022-10-20T14:34:35;17.10;33.60
15879;DHT22;61999;51.514;14.614;2022-10-20T14:37:04;16.80;33.40
15879;DHT22;61999;51.514;14.614;2022-10-20T14:39:49;16.90;33.60
15879;DHT22;61999;51.514;14.614;2022-10-20T14:42:22;16.80;33.60
15879;DHT22;61999;51.514;14.614;2022-10-20T14:44:54;16.90;33.20
15879;DHT22;61999;51.514;14.614;2022-10-20T14:47:37;16.50;33.00
15879;DHT22;61999;51.514;14.614;2022-10-20T14:50:19;16.50;33.50
15879;DHT22;61999;51.514;14.614;2022-10-20T14:52:49;16.40;33.70
15879;DHT22;61999;51.514;14.614;2022-10-20T14:55:33;16.20;33.80
15879;DHT22;61999;51.514;14.614;2022-10-20T14:58:04;16.00;34.00
15879;DHT22;61999;51.514;14.614;2022-10-20T15:01:12;15.80;34.30
15879;DHT22;61999;51.514;14.614;2022-10-20T15:03:42;15.70;35.00
15879;DHT22;61999;51.514;14.614;2022-10-20T15:06:13;15.70;35.20
15879;DHT22;61999;51.514;14.614;2022-10-20T15:08:53;15.70;35.40
15879;DHT22;61999;51.514;14.614;2022-10-20T15:11:25;15.60;36.70
15879;DHT22;61999;51.514;14.614;2022-10-20T15:13:59;15.50;37.60
15879;DHT22;61999;51.514;14.614;2022-10-20T15:16:32;15.40;37.80
15879;DHT22;61999;51.514;14.614;2022-10-20T15:19:27;15.40;38.60
15879;DHT22;61999;51.514;14.614;2022-10-20T15:21:59;15.50;38.40
15879;DHT22;61999;51.514;14.614;2022-10-20T15:24:29;15.30;38.60
15879;DHT22;61999;51.514;14.614;2022-10-20T15:26:57;15.50;38.50
15879;DHT22;61999;51.514;14.614;2022-10-20T15:29:30;14.90;40.00
15879;DHT22;61999;51.514;14.614;2022-10-20T15:31:59;14.80;39.50
15879;DHT22;61999;51.514;14.614;2022-10-20T15:34:27;14.70;39.30
15879;DHT22;61999;51.514;14.614;2022-10-20T15:36:55;14.50;40.80
15879;DHT22;61999;51.514;14.614;2022-10-20T15:39:23;14.20;40.80
15879;DHT22;61999;51.514;14.614;2022-10-20T15:41:51;13.80;42.30
15879;DHT22;61999;51.514;14.614;2022-10-20T15:44:20;13.50;41.80
15879;DHT22;61999;51.514;14.614;2022-10-20T15:46:51;13.10;42.70
15879;DHT22;61999;51.514;14.614;2022-10-20T15:49:20;12.80;43.20
15879;DHT22;61999;51.514;14.614;2022-10-20T15:51:48;12.70;44.20
15879;DHT22;61999;51.514;14.614;2022-10-20T15:54:18;12.50;43.80
15879;DHT22;61999;51.514;14.614;2022-10-20T15:56:47;12.20;45.10
15879;DHT22;61999;51.514;14.614;2022-10-20T15:59:15;12.00;45.40
15879;DHT22;61999;51.514;14.614;2022-10-20T16:01:43;11.80;45.80
15879;DHT22;61999;51.514;14.614;2022-10-20T16:04:17;11.60;45.80
15879;DHT22;61999;51.514;14.614;2022-10-20T16:06:48;11.30;46.90
15879;DHT22;61999;51.514;14.614;2022-10-20T16:09:21;11.00;48.10
15879;DHT22;61999;51.514;14.614;2022-10-20T16:11:50;10.80;47.30
15879;DHT22;61999;51.514;14.614;2022-10-20T16:14:18;10.60;47.00
15879;DHT22;61999;51.514;14.614;2022-10-20T16:16:46;10.30;47.80
15879;DHT22;61999;51.514;14.614;2022-10-20T16:19:13;10.30;48.30
15879;DHT22;61999;51.514;14.614;2022-10-20T16:21:43;10.10;47.80
15879;DHT22;61999;51.514;14.614;2022-10-20T16:24:11;9.90;49.20
15879;DHT22;61999;51.514;14.614;2022-10-20T16:26:39;9.60;49.80
15879;DHT22;61999;51.514;14.614;2022-10-20T16:29:06;9.40;49.30
15879;DHT22;61999;51.514;14.614;2022-10-20T16:31:34;9.10;51.80
15879;DHT22;61999;51.514;14.614;2022-10-20T16:34:02;8.80;51.90
15879;DHT22;61999;51.514;14.614;2022-10-20T16:36:31;8.70;52.40
15879;DHT22;61999;51.514;14.614;2022-10-20T16:39:00;8.50;51.90
15879;DHT22;61999;51.514;14.614;2022-10-20T16:41:28;8.50;52.50
15879;DHT22;61999;51.514;14.614;2022-10-20T16:43:56;8.30;52.70
15879;DHT22;61999;51.514;14.614;2022-10-20T16:46:25;8.30;51.90
15879;DHT22;61999;51.514;14.614;2022-10-20T16:48:53;8.20;52.80
15879;DHT22;61999;51.514;14.614;2022-10-20T16:51:22;8.00;53.10
15879;DHT22;61999;51.514;14.614;2022-10-20T16:53:52;7.90;52.20
15879;DHT22;61999;51.514;14.614;2022-10-20T16:56:22;7.80;53.20